createdAt,value
2023-03-18T00:02:02.536Z,53.62
2023-03-18T00:04:28.948Z,53.76
2023-03-18T00:06:55.364Z,53.69
2023-03-18T00:09:21.849Z,53.80
2023-03-18T00:11:48.232Z,53.77
2023-03-18T00:14:14.681Z,53.75
2023-03-18T00:16:41.057Z,53.78
2023-03-18T00:19:07.560Z,53.72
2023-03-18T00:21:33.953Z,53.74
2023-03-18T00:24:00.403Z,53.61
2023-03-18T00:26:26.708Z,53.80
2023-03-18T00:28:53.094Z,53.60
2023-03-18T00:31:19.695Z,53.59
2023-03-18T00:33:46.123Z,53.69
2023-03-18T00:36:12.526Z,53.67
2023-03-18T00:38:39.368Z,53.57
2023-03-18T00:41:05.720Z,53.60
2023-03-18T00:43:32.125Z,53.77
2023-03-18T00:45:58.675Z,53.70
2023-03-18T00:48:25.072Z,53.55
2023-03-18T00:50:51.592Z,53.63
2023-03-18T00:53:18.132Z,53.64
2023-03-18T00:55:44.474Z,53.70
2023-03-18T00:58:10.823Z,53.56
2023-03-18T01:00:37.416Z,53.41
2023-03-18T01:03:04.157Z,53.58
2023-03-18T01:05:30.650Z,53.54
2023-03-18T01:07:57.287Z,53.54
2023-03-18T01:10:23.566Z,53.58
2023-03-18T01:12:50.431Z,53.69
2023-03-18T01:15:16.722Z,53.48
2023-03-18T01:17:43.131Z,53.42
2023-03-18T01:20:09.502Z,53.51
2023-03-18T01:22:35.879Z,53.62
2023-03-18T01:25:02.284Z,53.43
2023-03-18T01:27:29.151Z,53.47
2023-03-18T01:29:55.986Z,53.52
2023-03-18T01:32:22.385Z,53.62
2023-03-18T01:34:48.744Z,53.42
2023-03-18T01:37:15.060Z,53.64
2023-03-18T01:39:41.446Z,53.44
2023-03-18T01:42:07.857Z,53.62
2023-03-18T01:44:34.179Z,53.31
2023-03-18T01:47:00.602Z,53.51
2023-03-18T01:49:27.058Z,53.51
2023-03-18T01:51:53.406Z,53.59
2023-03-18T01:54:19.945Z,53.50
2023-03-18T01:56:46.268Z,53.51
2023-03-18T01:59:12.682Z,53.59
2023-03-18T02:01:39.324Z,53.51
2023-03-18T02:04:05.896Z,53.62
2023-03-18T02:06:32.401Z,53.51
2023-03-18T02:08:58.983Z,53.64
2023-03-18T02:11:28.122Z,53.57
2023-03-18T02:13:54.610Z,53.50
2023-03-18T02:16:21.408Z,53.65
2023-03-18T02:18:48.215Z,53.64
2023-03-18T02:21:14.942Z,53.46
2023-03-18T02:23:41.627Z,53.55
2023-03-18T02:26:08.113Z,53.45
2023-03-18T02:28:34.546Z,53.53
2023-03-18T02:31:00.882Z,53.52
2023-03-18T02:33:27.582Z,53.67
2023-03-18T02:35:54.389Z,53.65
2023-03-18T02:38:20.966Z,53.37
2023-03-18T02:40:47.823Z,53.58
2023-03-18T02:43:14.150Z,53.63
2023-03-18T02:45:40.890Z,53.40
2023-03-18T02:48:07.259Z,53.75
2023-03-18T02:50:34.542Z,53.52
2023-03-18T02:53:00.941Z,53.53
2023-03-18T02:55:27.373Z,53.45
2023-03-18T02:57:53.701Z,53.73
2023-03-18T03:00:20.776Z,53.59
2023-03-18T03:02:47.385Z,53.39
2023-03-18T03:05:13.775Z,53.41
2023-03-18T03:07:40.095Z,53.55
2023-03-18T03:10:06.510Z,53.47
2023-03-18T03:12:33.034Z,53.55
2023-03-18T03:14:59.463Z,53.48
2023-03-18T03:17:25.838Z,53.52
2023-03-18T03:19:52.663Z,53.42
2023-03-18T03:22:19.577Z,53.51
2023-03-18T03:24:46.214Z,53.42
2023-03-18T03:27:12.815Z,53.59
2023-03-18T03:29:39.353Z,53.60
2023-03-18T03:32:06.780Z,53.45
2023-03-18T03:34:33.292Z,53.43
2023-03-18T03:37:00.143Z,53.43
2023-03-18T03:39:26.759Z,53.57
2023-03-18T03:41:53.468Z,53.20
2023-03-18T03:44:19.850Z,53.43
2023-03-18T03:46:46.300Z,53.45
2023-03-18T03:49:13.071Z,53.31
2023-03-18T03:51:39.429Z,53.29
2023-03-18T03:54:06.286Z,53.46
2023-03-18T03:56:32.780Z,53.33
2023-03-18T03:58:59.558Z,53.25
2023-03-18T04:01:26.396Z,53.21
2023-03-18T04:03:52.809Z,53.27
2023-03-18T04:06:19.607Z,53.17
2023-03-18T04:08:46.513Z,53.46
2023-03-18T04:11:12.900Z,53.41
2023-03-18T04:13:39.324Z,53.38
2023-03-18T04:16:06.024Z,53.30
2023-03-18T04:18:32.325Z,53.32
2023-03-18T04:20:58.732Z,53.36
2023-03-18T04:23:25.721Z,53.30
2023-03-18T04:25:52.287Z,53.32
2023-03-18T04:28:18.892Z,53.44
2023-03-18T04:30:45.215Z,53.32
2023-03-18T04:33:11.541Z,53.40
2023-03-18T04:35:37.905Z,53.40
2023-03-18T04:38:05.123Z,53.45
2023-03-18T04:40:31.968Z,53.28
2023-03-18T04:42:58.567Z,53.33
2023-03-18T04:45:25.181Z,53.28
2023-03-18T04:47:51.740Z,53.24
2023-03-18T04:50:18.488Z,53.30
2023-03-18T04:52:44.994Z,53.32
2023-03-18T04:55:11.364Z,53.13
2023-03-18T04:57:38.129Z,53.40
2023-03-18T05:00:04.618Z,53.50
2023-03-18T05:02:31.311Z,53.23
2023-03-18T05:04:57.794Z,53.18
2023-03-18T05:07:24.142Z,53.33
2023-03-18T05:09:50.992Z,53.07
2023-03-18T05:12:17.381Z,53.30
2023-03-18T05:14:44.103Z,53.13
2023-03-18T05:17:11.034Z,53.27
2023-03-18T05:19:37.340Z,53.05
2023-03-18T05:22:03.970Z,53.11
2023-03-18T05:24:30.327Z,53.06
2023-03-18T05:26:57.497Z,53.09
2023-03-18T05:29:23.919Z,53.07
2023-03-18T05:31:50.241Z,53.14
2023-03-18T05:34:17.136Z,53.13
2023-03-18T05:36:43.455Z,53.24
2023-03-18T05:39:09.823Z,53.08
2023-03-18T05:41:36.199Z,52.91
2023-03-18T05:44:02.499Z,53.24
2023-03-18T05:46:28.967Z,53.03
2023-03-18T05:48:55.354Z,53.26
2023-03-18T05:51:21.814Z,53.03
2023-03-18T05:53:48.667Z,52.96
2023-03-18T05:56:15.047Z,53.08
2023-03-18T05:58:41.661Z,53.11
2023-03-18T06:01:08.181Z,53.19
2023-03-18T06:03:34.977Z,52.89
2023-03-18T06:06:01.322Z,53.05
2023-03-18T06:08:27.980Z,52.98
2023-03-18T06:10:54.314Z,53.14
2023-03-18T06:13:21.073Z,53.00
2023-03-18T06:15:48.781Z,52.98
2023-03-18T06:18:15.602Z,53.19
2023-03-18T06:20:41.981Z,53.31
2023-03-18T06:23:08.953Z,52.94
2023-03-18T06:25:35.369Z,52.89
2023-03-18T06:28:01.739Z,53.06
2023-03-18T06:30:28.134Z,53.08
2023-03-18T06:32:54.530Z,52.83
2023-03-18T06:35:20.935Z,52.52
2023-03-18T06:37:47.239Z,52.75
2023-03-18T06:40:13.647Z,52.98
2023-03-18T06:42:39.986Z,52.99
2023-03-18T06:45:06.354Z,52.84
2023-03-18T06:47:33.715Z,52.63
2023-03-18T06:50:00.023Z,52.93
2023-03-18T06:52:26.942Z,52.82
2023-03-18T06:54:53.424Z,52.74
2023-03-18T06:57:19.796Z,52.83
2023-03-18T06:59:46.266Z,52.99
2023-03-18T07:02:13.073Z,52.73
2023-03-18T07:04:39.624Z,52.73
2023-03-18T07:07:06.036Z,52.88
2023-03-18T07:09:32.404Z,52.67
2023-03-18T07:11:59.183Z,52.93
2023-03-18T07:14:25.598Z,53.07
2023-03-18T07:16:52.305Z,52.90
2023-03-18T07:19:18.693Z,52.71
2023-03-18T07:21:45.052Z,53.00
2023-03-18T07:24:11.549Z,52.91
2023-03-18T07:26:37.871Z,52.86
2023-03-18T07:29:04.188Z,52.98
2023-03-18T07:31:30.482Z,52.94
2023-03-18T07:33:57.237Z,53.00
2023-03-18T07:36:24.100Z,53.08
2023-03-18T07:38:50.521Z,52.95
2023-03-18T07:41:16.882Z,52.85
2023-03-18T07:43:43.312Z,52.73
2023-03-18T07:46:09.800Z,53.10
2023-03-18T07:48:36.144Z,53.18
2023-03-18T07:51:02.486Z,53.21
2023-03-18T07:53:28.759Z,53.10
2023-03-18T07:55:55.323Z,53.24
2023-03-18T07:58:21.671Z,53.44
2023-03-18T08:00:48.479Z,53.49
2023-03-18T08:03:14.871Z,53.44
2023-03-18T08:05:41.318Z,53.62
2023-03-18T08:08:07.638Z,53.53
2023-03-18T08:10:34.318Z,53.64
2023-03-18T08:13:01.223Z,53.56
2023-03-18T08:15:27.525Z,53.53
2023-03-18T08:17:54.137Z,53.40
2023-03-18T08:20:20.512Z,53.65
2023-03-18T08:22:46.940Z,53.51
2023-03-18T08:25:13.348Z,53.73
2023-03-18T08:27:39.712Z,53.57
2023-03-18T08:30:06.300Z,53.73
2023-03-18T08:32:32.974Z,53.57
2023-03-18T08:34:59.837Z,53.77
2023-03-18T08:37:26.384Z,53.73
2023-03-18T08:39:52.733Z,53.78
2023-03-18T08:42:19.654Z,53.83
2023-03-18T08:44:46.125Z,53.75
2023-03-18T08:47:12.476Z,53.57
2023-03-18T08:49:39.151Z,53.72
2023-03-18T08:52:05.824Z,53.74
2023-03-18T08:54:32.314Z,53.80
2023-03-18T08:56:58.955Z,53.81
2023-03-18T08:59:25.614Z,53.81
2023-03-18T09:01:52.080Z,54.04
2023-03-18T09:04:18.466Z,53.86
2023-03-18T09:06:45.222Z,53.89
2023-03-18T09:09:11.671Z,53.96
2023-03-18T09:11:38.203Z,53.95
2023-03-18T09:14:04.584Z,53.97
2023-03-18T09:16:31.010Z,54.22
2023-03-18T09:18:57.416Z,54.22
2023-03-18T09:21:23.706Z,53.97
2023-03-18T09:23:50.539Z,54.10
2023-03-18T09:26:16.890Z,54.03
2023-03-18T09:28:43.263Z,54.30
2023-03-18T09:31:10.005Z,54.08
2023-03-18T09:33:36.417Z,54.29
2023-03-18T09:36:02.792Z,54.27
2023-03-18T09:38:29.211Z,54.02
2023-03-18T09:40:55.855Z,54.22
2023-03-18T09:43:22.658Z,54.18
2023-03-18T09:45:49.291Z,54.25
2023-03-18T09:48:16.107Z,54.28
2023-03-18T09:50:42.539Z,54.25
2023-03-18T09:53:08.865Z,54.33
2023-03-18T09:55:36.215Z,54.39
2023-03-18T09:58:02.802Z,54.37
2023-03-18T10:00:29.158Z,54.34
2023-03-18T10:02:55.665Z,54.25
2023-03-18T10:05:22.058Z,54.34
2023-03-18T10:07:48.431Z,54.42
2023-03-18T10:10:15.026Z,54.69
2023-03-18T10:12:41.391Z,54.42
2023-03-18T10:15:07.756Z,54.73
2023-03-18T10:17:34.443Z,54.78
2023-03-18T10:20:01.072Z,54.89
2023-03-18T10:22:27.679Z,55.08
2023-03-18T10:24:54.045Z,55.16
2023-03-18T10:27:20.453Z,55.40
2023-03-18T10:29:46.755Z,55.73
2023-03-18T10:32:13.109Z,55.82
2023-03-18T10:34:39.402Z,55.85
2023-03-18T10:37:06.134Z,56.10
2023-03-18T10:39:32.859Z,56.08
2023-03-18T10:41:59.466Z,56.45
2023-03-18T10:44:25.825Z,56.52
2023-03-18T10:46:52.937Z,56.76
2023-03-18T10:49:19.344Z,56.94
2023-03-18T10:51:45.779Z,57.11
2023-03-18T10:54:12.303Z,57.43
2023-03-18T10:56:38.751Z,57.53
2023-03-18T10:59:05.098Z,57.66
2023-03-18T11:01:31.483Z,57.73
2023-03-18T11:03:57.993Z,57.91
2023-03-18T11:06:24.516Z,57.96
2023-03-18T11:08:50.991Z,58.11
2023-03-18T11:11:17.465Z,58.28
2023-03-18T11:13:43.960Z,58.22
2023-03-18T11:16:10.257Z,58.16
2023-03-18T11:18:36.724Z,58.68
2023-03-18T11:21:03.066Z,58.37
2023-03-18T11:23:29.389Z,58.55
2023-03-18T11:25:55.739Z,58.80
2023-03-18T11:28:22.066Z,58.73
2023-03-18T11:30:48.735Z,58.72
2023-03-18T11:33:15.495Z,59.02
2023-03-18T11:35:42.044Z,58.94
2023-03-18T11:38:08.387Z,59.19
2023-03-18T11:40:35.132Z,58.90
2023-03-18T11:43:01.634Z,58.92
2023-03-18T11:45:28.413Z,59.00
2023-03-18T11:47:54.739Z,59.37
2023-03-18T11:50:21.296Z,59.09
2023-03-18T11:52:47.613Z,59.34
2023-03-18T11:55:13.928Z,59.48
2023-03-18T11:57:40.813Z,59.27
2023-03-18T12:00:07.368Z,59.57
2023-03-18T12:02:33.666Z,59.33
2023-03-18T12:05:00.040Z,59.64
2023-03-18T12:07:26.933Z,59.48
2023-03-18T12:09:53.393Z,59.73
2023-03-18T12:12:19.824Z,59.77
2023-03-18T12:14:46.169Z,59.48
2023-03-18T12:17:12.760Z,59.63
2023-03-18T12:19:39.018Z,59.76
2023-03-18T12:22:05.500Z,59.80
2023-03-18T12:24:32.074Z,59.60
2023-03-18T12:26:58.713Z,59.92
2023-03-18T12:29:25.028Z,59.89
2023-03-18T12:31:51.406Z,59.77
2023-03-18T12:34:17.828Z,59.60
2023-03-18T12:36:44.140Z,59.70
2023-03-18T12:39:10.572Z,59.82
2023-03-18T12:41:37.512Z,59.95
2023-03-18T12:44:04.057Z,59.88
2023-03-18T12:46:30.521Z,59.97
2023-03-18T12:48:56.824Z,59.98
2023-03-18T12:51:23.537Z,59.78
2023-03-18T12:53:49.856Z,59.70
2023-03-18T12:56:16.221Z,59.96
2023-03-18T12:58:42.535Z,59.84
2023-03-18T13:01:09.010Z,59.94
2023-03-18T13:03:35.460Z,59.66
2023-03-18T13:06:01.978Z,59.81
2023-03-18T13:08:28.334Z,59.93
2023-03-18T13:10:54.795Z,59.80
2023-03-18T13:13:21.150Z,59.68
2023-03-18T13:15:47.523Z,59.75
2023-03-18T13:18:13.892Z,59.39
2023-03-18T13:20:40.373Z,59.65
2023-03-18T13:23:06.812Z,59.86
2023-03-18T13:25:33.438Z,59.66
2023-03-18T13:28:00.027Z,59.96
2023-03-18T13:30:26.598Z,59.93
2023-03-18T13:32:53.282Z,59.59
2023-03-18T13:35:19.843Z,59.87
2023-03-18T13:37:46.339Z,59.55
2023-03-18T13:40:12.617Z,59.67
2023-03-18T13:42:39.134Z,59.58
2023-03-18T13:45:05.687Z,59.62
2023-03-18T13:47:32.099Z,59.79
2023-03-18T13:49:58.646Z,59.73
2023-03-18T13:52:25.276Z,59.84
2023-03-18T13:54:51.671Z,59.75
2023-03-18T13:57:18.109Z,59.68
2023-03-18T13:59:44.713Z,59.29
2023-03-18T14:02:11.145Z,59.59
2023-03-18T14:04:37.409Z,59.15
2023-03-18T14:07:04.222Z,59.13
2023-03-18T14:09:30.718Z,59.69
2023-03-18T14:11:57.611Z,59.15
2023-03-18T14:14:24.057Z,58.91
2023-03-18T14:16:50.910Z,58.95
2023-03-18T14:19:17.722Z,58.60
2023-03-18T14:21:44.113Z,59.06
2023-03-18T14:24:10.560Z,58.83
2023-03-18T14:26:36.905Z,58.86
2023-03-18T14:29:03.273Z,58.63
2023-03-18T14:31:29.833Z,58.91
2023-03-18T14:33:56.180Z,58.82
2023-03-18T14:36:22.544Z,58.93
2023-03-18T14:38:49.187Z,58.72
2023-03-18T14:41:15.518Z,58.76
2023-03-18T14:43:42.106Z,58.80
2023-03-18T14:46:08.952Z,58.88
2023-03-18T14:48:35.365Z,58.48
2023-03-18T14:51:01.694Z,58.69
2023-03-18T14:53:28.069Z,58.83
2023-03-18T14:55:57.059Z,58.83
2023-03-18T14:58:23.703Z,58.89
2023-03-18T15:00:50.072Z,58.60
2023-03-18T15:03:16.898Z,58.73
2023-03-18T15:05:43.294Z,58.89
2023-03-18T15:08:09.674Z,58.24
2023-03-18T15:10:36.045Z,58.32
2023-03-18T15:13:02.788Z,58.22
2023-03-18T15:15:29.077Z,58.32
2023-03-18T15:17:55.549Z,58.26
2023-03-18T15:20:22.182Z,58.16
2023-03-18T15:22:48.563Z,58.23
2023-03-18T15:25:14.889Z,57.82
2023-03-18T15:27:41.612Z,58.08
2023-03-18T15:30:07.980Z,58.12
2023-03-18T15:32:34.441Z,58.06
2023-03-18T15:35:01.519Z,58.29
2023-03-18T15:37:28.383Z,57.79
2023-03-18T15:39:54.675Z,57.85
2023-03-18T15:42:21.565Z,57.80
2023-03-18T15:44:47.877Z,57.89
2023-03-18T15:47:14.215Z,57.99
2023-03-18T15:49:41.321Z,57.62
2023-03-18T15:52:07.608Z,57.84
2023-03-18T15:54:34.097Z,57.89
2023-03-18T15:57:00.515Z,57.80
2023-03-18T15:59:26.860Z,57.86
2023-03-18T16:01:53.239Z,58.04
2023-03-18T16:04:19.895Z,57.95
2023-03-18T16:06:46.434Z,57.79
2023-03-18T16:09:12.821Z,57.97
2023-03-18T16:11:39.169Z,57.99
2023-03-18T16:14:06.026Z,57.21
2023-03-18T16:16:33.024Z,56.96
2023-03-18T16:18:59.446Z,57.22
2023-03-18T16:21:25.881Z,57.45
2023-03-18T16:23:52.646Z,57.28
2023-03-18T16:26:19.297Z,57.27
2023-03-18T16:28:47.172Z,57.69
2023-03-18T16:31:14.914Z,57.61
2023-03-18T16:33:41.283Z,57.50
2023-03-18T16:36:07.696Z,57.83
2023-03-18T16:38:34.407Z,57.84
2023-03-18T16:41:00.713Z,57.75
2023-03-18T16:43:27.149Z,58.08
2023-03-18T16:45:53.666Z,57.74
2023-03-18T16:48:20.196Z,57.96
2023-03-18T16:50:46.552Z,57.97
2023-03-18T16:53:12.975Z,58.21
2023-03-18T16:55:39.330Z,57.96
2023-03-18T16:58:06.071Z,57.95
2023-03-18T17:00:32.902Z,57.33
2023-03-18T17:02:59.249Z,57.52
2023-03-18T17:05:25.638Z,57.50
2023-03-18T17:07:52.015Z,57.66
2023-03-18T17:10:18.327Z,57.52
2023-03-18T17:12:44.759Z,57.42
2023-03-18T17:15:11.324Z,57.44
2023-03-18T17:17:38.011Z,56.98
2023-03-18T17:20:05.053Z,56.71
2023-03-18T17:22:31.380Z,56.86
2023-03-18T17:24:57.731Z,56.90
2023-03-18T17:27:24.512Z,56.70
2023-03-18T17:29:50.965Z,56.38
2023-03-18T17:32:17.605Z,56.07
2023-03-18T17:34:43.997Z,56.27
2023-03-18T17:37:10.277Z,56.32
2023-03-18T17:39:37.116Z,56.52
2023-03-18T17:42:03.621Z,56.68
2023-03-18T17:44:30.563Z,56.75
2023-03-18T17:46:57.086Z,56.56
2023-03-18T17:49:23.558Z,56.89
2023-03-18T17:51:49.919Z,56.72
2023-03-18T17:54:16.526Z,57.07
2023-03-18T17:56:42.890Z,57.06
2023-03-18T17:59:09.508Z,57.08
2023-03-18T18:01:36.144Z,56.93
2023-03-18T18:04:02.726Z,56.76
2023-03-18T18:06:29.174Z,56.95
2023-03-18T18:08:55.854Z,57.00
2023-03-18T18:11:22.369Z,57.23
2023-03-18T18:13:49.235Z,57.29
2023-03-18T18:16:15.678Z,57.55
2023-03-18T18:18:42.612Z,57.51
2023-03-18T18:21:09.386Z,57.61
2023-03-18T18:23:35.754Z,57.44
2023-03-18T18:26:02.129Z,57.28
2023-03-18T18:28:28.626Z,57.51
2023-03-18T18:30:55.324Z,57.79
2023-03-18T18:33:21.681Z,57.52
2023-03-18T18:35:48.171Z,57.60
2023-03-18T18:38:14.644Z,57.67
2023-03-18T18:40:41.317Z,57.75
2023-03-18T18:43:07.738Z,58.03
2023-03-18T18:45:34.980Z,57.65
2023-03-18T18:48:01.501Z,57.90
2023-03-18T18:50:27.898Z,57.92
2023-03-18T18:52:54.612Z,57.84
2023-03-18T18:55:21.150Z,57.51
2023-03-18T18:57:47.755Z,57.98
2023-03-18T19:00:14.418Z,57.61
2023-03-18T19:02:40.930Z,57.74
2023-03-18T19:05:07.505Z,57.95
2023-03-18T19:07:33.827Z,57.98
2023-03-18T19:10:00.206Z,57.78
2023-03-18T19:12:26.800Z,57.95
2023-03-18T19:14:53.417Z,57.92
2023-03-18T19:17:20.122Z,58.14
2023-03-18T19:19:46.495Z,58.19
2023-03-18T19:22:13.049Z,57.93
2023-03-18T19:24:39.704Z,58.46
2023-03-18T19:27:06.145Z,58.05
2023-03-18T19:29:32.665Z,58.12
2023-03-18T19:31:59.367Z,58.29
2023-03-18T19:34:25.929Z,58.03
2023-03-18T19:36:52.430Z,58.38
2023-03-18T19:39:18.903Z,58.09
2023-03-18T19:41:45.433Z,58.51
2023-03-18T19:44:13.224Z,58.11
2023-03-18T19:46:40.046Z,58.14
2023-03-18T19:49:06.510Z,58.11
2023-03-18T19:51:33.091Z,58.26
2023-03-18T19:53:59.580Z,58.25
2023-03-18T19:56:26.137Z,58.57
2023-03-18T19:58:52.761Z,58.13
2023-03-18T20:01:19.245Z,58.25
2023-03-18T20:03:45.650Z,58.33
2023-03-18T20:06:12.191Z,58.33
2023-03-18T20:08:38.559Z,58.34
2023-03-18T20:11:05.405Z,58.26
2023-03-18T20:13:31.916Z,58.22
2023-03-18T20:15:58.298Z,58.03
2023-03-18T20:18:25.370Z,58.20
2023-03-18T20:20:51.732Z,58.05
2023-03-18T20:23:18.618Z,58.18
2023-03-18T20:25:45.143Z,58.18
2023-03-18T20:28:11.603Z,58.38
2023-03-18T20:30:38.395Z,58.28
2023-03-18T20:33:05.032Z,58.32
2023-03-18T20:35:32.288Z,58.19
2023-03-18T20:37:59.118Z,58.51
2023-03-18T20:40:25.483Z,58.05
2023-03-18T20:42:51.913Z,58.26
2023-03-18T20:45:18.419Z,58.61
2023-03-18T20:47:45.326Z,58.68
2023-03-18T20:50:11.640Z,58.52
2023-03-18T20:52:37.942Z,58.64
2023-03-18T20:55:04.786Z,58.64
2023-03-18T20:57:31.427Z,58.57
2023-03-18T20:59:58.071Z,58.28
2023-03-18T21:02:24.646Z,58.45
2023-03-18T21:04:51.137Z,57.69
2023-03-18T21:07:18.169Z,57.39
2023-03-18T21:09:44.841Z,57.09
2023-03-18T21:12:11.182Z,57.23
2023-03-18T21:14:37.588Z,57.01
2023-03-18T21:17:04.173Z,57.29
2023-03-18T21:19:31.135Z,56.96
2023-03-18T21:22:00.116Z,57.10
2023-03-18T21:24:26.526Z,56.93
2023-03-18T21:27:03.808Z,57.03
2023-03-18T21:29:32.229Z,56.93
2023-03-18T21:31:58.542Z,56.77
2023-03-18T21:34:25.339Z,56.85
2023-03-18T21:36:51.866Z,57.05
2023-03-18T21:39:18.400Z,56.88
2023-03-18T21:41:44.888Z,56.95
2023-03-18T21:44:11.628Z,56.94
2023-03-18T21:46:38.533Z,57.04
2023-03-18T21:49:05.024Z,57.28
2023-03-18T21:51:39.228Z,57.34
2023-03-18T21:54:06.538Z,57.27
2023-03-18T21:56:33.207Z,57.12
2023-03-18T21:58:59.731Z,57.25
2023-03-18T22:01:26.283Z,57.11
2023-03-18T22:03:53.705Z,57.27
2023-03-18T22:06:20.193Z,57.28
2023-03-18T22:08:46.849Z,57.18
2023-03-18T22:11:13.313Z,57.06
2023-03-18T22:13:39.778Z,57.27
2023-03-18T22:16:06.160Z,57.47
2023-03-18T22:18:32.653Z,57.51
2023-03-18T22:20:59.355Z,57.32
2023-03-18T22:23:26.297Z,57.24
2023-03-18T22:25:52.812Z,57.19
2023-03-18T22:28:19.624Z,57.32
2023-03-18T22:30:46.138Z,57.42
2023-03-18T22:33:12.670Z,57.13
2023-03-18T22:35:39.237Z,57.44
2023-03-18T22:38:06.125Z,57.35
2023-03-18T22:40:32.891Z,57.21
2023-03-18T22:42:59.817Z,57.20
2023-03-18T22:45:26.539Z,57.42
2023-03-18T22:47:52.859Z,57.01
2023-03-18T22:50:20.631Z,57.15
2023-03-18T22:52:47.735Z,57.14
2023-03-18T22:55:14.386Z,57.45
2023-03-18T22:57:40.738Z,57.35
2023-03-18T23:00:07.132Z,57.42
2023-03-18T23:02:34.594Z,57.27
2023-03-18T23:05:01.136Z,57.46
2023-03-18T23:07:27.976Z,57.35
2023-03-18T23:09:56.851Z,57.81
2023-03-18T23:12:23.902Z,57.45
2023-03-18T23:14:50.393Z,57.83
2023-03-18T23:17:17.208Z,57.47
2023-03-18T23:19:43.989Z,57.71
2023-03-18T23:22:10.370Z,57.84
2023-03-18T23:24:37.581Z,57.70
2023-03-18T23:27:04.471Z,57.83
2023-03-18T23:29:31.134Z,57.92
2023-03-18T23:31:57.677Z,57.65
2023-03-18T23:34:24.547Z,57.97
2023-03-18T23:36:50.935Z,57.73
2023-03-18T23:39:17.352Z,57.82
2023-03-18T23:41:43.782Z,58.13
2023-03-18T23:44:10.186Z,58.02
2023-03-18T23:46:36.960Z,57.76
2023-03-18T23:49:03.444Z,57.76
2023-03-18T23:51:29.953Z,58.19
2023-03-18T23:53:56.585Z,58.22
2023-03-18T23:56:23.251Z,57.88
2023-03-18T23:58:49.788Z,58.16
